Terminal Aerodrome Forecast
Issued by NWS

Home | Current Version | Previous Version | Text Only | Print | Product List | Glossary On
Versions: 1 2 3 4 5 6 7 8 9 10 11 12 13 14
000
FTAK31 PAJN 102338
TAFAPG
TAF
PAPG 102338Z 1100/1124 09005KT P6SM VCSH SCT040 OVC120
      WS020/13035KT
     FM110300 11011G20KT 4SM RA BR BKN020 OVC035 WS020/13050KT
     FM111100 11010G18KT P6SM VCSH SCT030 OVC110 WS020/14045KT
      AMD LTD TO CLD VIS AND WIND 1106/1115=

USA.gov is the U.S. government's official web portal to all federal, state and local government web resources and services.